Time;durP1;ratioP1;P1;durP2;ratioP2;P2;SDS_P1;SDS_P2;PMS_P1;PMS_P2;Temp;Humidity;BMP_temperature;BMP_pressure;BME280_temperature;BME280_humidity;BME280_pressure;Samples;Min_cycle;Max_cycle;Signal;HPM_P1;HPM_P2
2023/11/08 00:00:24;;;;;;;7.10;2.60;;;8.60;95.60;;;;;;5037021;28;20045;-74
2023/11/08 00:02:50;;;;;;;6.45;2.20;;;8.60;95.70;;;;;;5025652;28;20072;-73
2023/11/08 00:05:16;;;;;;;6.30;2.55;;;8.60;95.70;;;;;;5021091;28;20053;-76
2023/11/08 00:07:41;;;;;;;6.18;2.28;;;8.60;95.80;;;;;;5027542;28;20029;-74
2023/11/08 00:10:09;;;;;;;10.13;2.45;;;8.60;95.80;;;;;;5023564;28;20046;-74
2023/11/08 00:12:35;;;;;;;10.63;2.70;;;8.50;95.90;;;;;;5020133;28;20041;-74
2023/11/08 00:15:03;;;;;;;7.13;2.70;;;8.50;96.00;;;;;;5020702;28;20128;-73
2023/11/08 00:17:28;;;;;;;6.55;2.33;;;8.60;96.00;;;;;;5024578;28;20037;-74
2023/11/08 00:19:54;;;;;;;7.05;2.67;;;8.60;96.00;;;;;;5020864;28;20038;-75
2023/11/08 00:22:20;;;;;;;7.68;2.30;;;8.60;96.00;;;;;;5023013;28;20057;-73
2023/11/08 00:24:46;;;;;;;7.22;2.40;;;8.50;96.00;;;;;;5023672;28;20124;-75
2023/11/08 00:27:12;;;;;;;8.27;2.63;;;8.40;96.10;;;;;;5023557;28;20132;-74
2023/11/08 00:29:37;;;;;;;7.68;2.75;;;8.50;96.10;;;;;;5019143;28;20026;-75
2023/11/08 00:32:03;;;;;;;6.10;1.90;;;8.40;96.10;;;;;;5022169;28;20402;-74
2023/11/08 00:34:29;;;;;;;8.55;2.75;;;8.50;96.20;;;;;;5023565;28;20045;-73
2023/11/08 00:36:56;;;;;;;8.45;2.85;;;8.50;96.20;;;;;;5021382;28;20030;-74
2023/11/08 00:39:22;;;;;;;5.85;2.40;;;8.40;96.20;;;;;;5022650;28;20017;-75
2023/11/08 00:41:47;;;;;;;5.97;2.50;;;8.50;96.20;;;;;;5019842;28;20038;-74
2023/11/08 00:44:13;;;;;;;5.45;2.25;;;8.50;96.20;;;;;;5016882;28;20119;-73
2023/11/08 00:46:39;;;;;;;6.05;2.90;;;8.40;96.20;;;;;;5017387;28;20045;-74
2023/11/08 00:49:05;;;;;;;7.93;2.50;;;8.40;96.30;;;;;;5022367;28;20021;-74
2023/11/08 00:51:31;;;;;;;8.45;2.15;;;8.40;96.30;;;;;;5018060;28;20122;-73
2023/11/08 00:53:57;;;;;;;10.07;2.35;;;8.40;96.30;;;;;;5023921;28;20703;-74
2023/11/08 00:56:22;;;;;;;6.70;2.17;;;8.40;96.20;;;;;;5020177;28;20025;-74
2023/11/08 00:58:48;;;;;;;8.38;2.30;;;8.40;96.20;;;;;;5021812;28;20025;-74
2023/11/08 01:01:13;;;;;;;7.80;2.70;;;8.30;96.20;;;;;;5023305;28;20046;-74
2023/11/08 01:03:39;;;;;;;7.85;2.42;;;8.40;96.30;;;;;;5020778;28;20037;-74
2023/11/08 01:06:05;;;;;;;10.75;3.25;;;8.30;96.30;;;;;;5018787;28;20038;-73
2023/11/08 01:08:30;;;;;;;9.65;2.58;;;8.30;96.30;;;;;;5020616;28;20047;-72
2023/11/08 01:10:56;;;;;;;8.98;2.55;;;8.30;96.40;;;;;;5022189;28;20053;-74
2023/11/08 01:13:22;;;;;;;10.25;2.47;;;8.30;96.40;;;;;;5019595;28;20038;-74
2023/11/08 01:15:47;;;;;;;7.63;3.10;;;8.30;96.40;;;;;;5019058;28;20560;-74
2023/11/08 01:18:13;;;;;;;10.13;2.42;;;8.30;96.40;;;;;;5025874;28;20091;-75
2023/11/08 01:20:41;;;;;;;8.50;2.47;;;8.30;96.50;;;;;;5021851;28;20025;-75
2023/11/08 01:23:06;;;;;;;8.75;3.08;;;8.40;96.50;;;;;;5017784;28;20053;-74
2023/11/08 01:25:32;;;;;;;11.23;3.03;;;8.30;96.50;;;;;;5016571;28;20124;-76
2023/11/08 01:27:58;;;;;;;10.13;3.03;;;8.40;96.60;;;;;;5024974;28;20053;-74
2023/11/08 01:30:23;;;;;;;8.95;3.08;;;8.40;96.50;;;;;;5022775;28;20029;-74
2023/11/08 01:32:49;;;;;;;8.35;2.80;;;8.30;96.40;;;;;;5024495;28;20045;-74
2023/11/08 01:35:15;;;;;;;9.68;2.80;;;8.30;96.40;;;;;;5022692;28;20740;-75
2023/11/08 01:37:40;;;;;;;8.63;2.78;;;8.20;96.50;;;;;;5019649;28;20053;-74
2023/11/08 01:40:08;;;;;;;8.05;2.50;;;8.30;96.60;;;;;;5023365;28;20108;-75
2023/11/08 01:42:34;;;;;;;8.55;3.20;;;8.30;96.60;;;;;;5021209;28;20050;-74
2023/11/08 01:45:00;;;;;;;5.97;2.58;;;8.30;96.60;;;;;;5022003;28;20042;-74
2023/11/08 01:47:27;;;;;;;12.85;3.55;;;8.20;96.60;;;;;;5019160;28;20099;-74
2023/11/08 01:49:53;;;;;;;11.63;2.70;;;8.30;96.60;;;;;;5019368;28;20500;-74
2023/11/08 01:52:20;;;;;;;7.00;2.63;;;8.30;96.60;;;;;;5019610;28;20045;-73
2023/11/08 01:54:49;;;;;;;7.85;2.50;;;8.30;96.60;;;;;;5016053;28;20497;-75
2023/11/08 01:57:17;;;;;;;8.45;2.65;;;8.30;96.60;;;;;;5017871;28;20130;-73
2023/11/08 01:59:45;;;;;;;11.55;2.90;;;8.20;96.50;;;;;;5021946;28;20076;-74
2023/11/08 02:02:11;;;;;;;7.25;2.80;;;8.30;96.40;;;;;;5022542;28;20132;-74
2023/11/08 02:04:36;;;;;;;8.90;3.08;;;8.20;96.40;;;;;;5017381;28;20108;-73
2023/11/08 02:07:02;;;;;;;8.55;2.72;;;8.20;96.30;;;;;;5015319;28;20032;-74
2023/11/08 02:09:29;;;;;;;8.65;3.42;;;8.10;96.30;;;;;;5020429;28;20029;-74
2023/11/08 02:11:58;;;;;;;11.13;3.05;;;8.10;96.40;;;;;;5018904;28;20030;-73
2023/11/08 02:14:25;;;;;;;8.50;2.55;;;8.10;96.40;;;;;;5021672;28;20029;-75
2023/11/08 02:16:50;;;;;;;9.15;2.85;;;8.10;96.40;;;;;;5019403;28;20067;-76
2023/11/08 02:19:16;;;;;;;8.00;2.85;;;8.10;96.40;;;;;;5017497;28;20117;-75
2023/11/08 02:21:42;;;;;;;9.93;2.72;;;8.10;96.40;;;;;;5017270;28;20415;-74
2023/11/08 02:24:18;;;;;;;8.23;2.63;;;8.10;96.40;;;;;;5017301;28;21472;-74
2023/11/08 02:26:47;;;;;;;9.32;2.92;;;8.10;96.40;;;;;;5017882;28;20113;-74
2023/11/08 02:29:13;;;;;;;7.13;2.75;;;8.10;96.40;;;;;;5020596;28;20050;-74
2023/11/08 02:31:38;;;;;;;8.68;3.20;;;8.00;96.50;;;;;;5020691;28;20461;-74
2023/11/08 02:34:06;;;;;;;11.35;3.03;;;8.00;96.50;;;;;;5014141;28;20072;-74
2023/11/08 02:36:33;;;;;;;8.63;3.30;;;8.00;96.60;;;;;;5015171;28;20131;-74
2023/11/08 02:38:59;;;;;;;11.60;3.42;;;8.00;96.50;;;;;;5023277;28;20581;-74
2023/11/08 02:41:25;;;;;;;9.35;3.35;;;8.10;96.60;;;;;;5015171;28;20065;-74
2023/11/08 02:43:50;;;;;;;12.65;3.95;;;7.90;96.60;;;;;;5023047;28;20034;-75
2023/11/08 02:46:16;;;;;;;8.02;3.47;;;8.00;96.60;;;;;;5015318;28;20036;-77
2023/11/08 02:48:42;;;;;;;13.10;4.40;;;8.00;96.60;;;;;;5021011;28;20026;-74
2023/11/08 02:51:08;;;;;;;11.75;3.47;;;8.00;96.70;;;;;;5019892;28;20124;-74
2023/11/08 02:53:34;;;;;;;9.98;3.85;;;8.00;96.70;;;;;;5015687;28;20151;-73
2023/11/08 02:55:59;;;;;;;10.40;3.70;;;8.00;96.80;;;;;;5019568;28;20693;-75
2023/11/08 02:58:25;;;;;;;9.07;3.30;;;8.00;96.80;;;;;;5024478;28;20040;-74
2023/11/08 03:00:54;;;;;;;8.40;3.65;;;8.10;96.90;;;;;;5022942;28;20088;-75
2023/11/08 03:03:20;;;;;;;7.18;3.40;;;8.10;96.90;;;;;;5020604;28;20033;-74
2023/11/08 03:05:46;;;;;;;10.68;3.33;;;8.10;96.90;;;;;;5023833;28;20095;-75
2023/11/08 03:08:12;;;;;;;11.65;4.18;;;8.10;97.00;;;;;;5022227;28;20476;-76
2023/11/08 03:10:38;;;;;;;8.70;3.53;;;8.10;97.00;;;;;;5025911;28;20065;-76
2023/11/08 03:13:05;;;;;;;11.27;3.45;;;8.10;97.00;;;;;;5020374;28;20034;-74
2023/11/08 03:15:32;;;;;;;9.63;3.30;;;8.20;97.00;;;;;;5024038;28;20042;-75
2023/11/08 03:17:58;;;;;;;10.32;3.90;;;8.20;96.90;;;;;;5023609;28;20068;-74
2023/11/08 03:20:26;;;;;;;11.50;4.07;;;8.20;96.90;;;;;;5021866;28;20037;-74
2023/11/08 03:22:52;;;;;;;13.27;3.50;;;8.30;96.90;;;;;;5021460;28;20038;-75
2023/11/08 03:25:18;;;;;;;10.07;3.45;;;8.30;96.80;;;;;;5020186;28;20025;-74
2023/11/08 03:27:44;;;;;;;10.13;3.67;;;8.30;96.80;;;;;;5018265;28;20049;-74
2023/11/08 03:30:12;;;;;;;9.02;3.15;;;8.30;96.80;;;;;;5020146;28;20029;-75
2023/11/08 03:32:38;;;;;;;8.65;3.10;;;8.40;96.80;;;;;;5026595;28;20033;-75
2023/11/08 03:35:05;;;;;;;12.80;3.72;;;8.40;96.70;;;;;;5025049;28;20125;-73
2023/11/08 03:37:38;;;;;;;10.48;3.45;;;8.40;96.70;;;;;;5019892;28;20380;-74
2023/11/08 03:40:05;;;;;;;8.60;2.95;;;8.40;96.70;;;;;;5022061;28;20038;-76
2023/11/08 03:42:34;;;;;;;10.27;3.58;;;8.50;96.70;;;;;;5020291;28;20046;-74
2023/11/08 03:45:01;;;;;;;12.57;3.58;;;8.50;96.60;;;;;;5025245;28;20041;-74
2023/11/08 03:47:27;;;;;;;11.68;3.20;;;8.60;96.60;;;;;;5023353;28;20065;-75
2023/11/08 03:49:54;;;;;;;9.23;3.88;;;8.60;96.60;;;;;;5024250;28;20552;-75
2023/11/08 03:52:20;;;;;;;11.10;3.08;;;8.60;96.50;;;;;;5018615;28;20026;-75
2023/11/08 03:54:46;;;;;;;7.90;2.80;;;8.60;96.40;;;;;;5025224;28;20359;-77
2023/11/08 03:57:11;;;;;;;9.90;3.17;;;8.60;96.30;;;;;;5022252;28;20196;-74
2023/11/08 03:59:37;;;;;;;8.40;3.25;;;8.60;96.30;;;;;;5024398;28;20037;-74
2023/11/08 04:02:02;;;;;;;7.57;2.88;;;8.70;96.20;;;;;;5018754;28;20045;-75
2023/11/08 04:04:28;;;;;;;9.55;3.35;;;8.70;96.00;;;;;;5018037;28;20643;-74
2023/11/08 04:06:54;;;;;;;11.20;3.22;;;8.70;96.00;;;;;;5024109;28;20125;-76
2023/11/08 04:09:19;;;;;;;13.25;3.67;;;8.80;95.90;;;;;;5025542;28;20040;-77
2023/11/08 04:11:45;;;;;;;11.48;3.30;;;8.80;95.90;;;;;;5015170;28;20329;-74
2023/11/08 04:14:11;;;;;;;9.75;3.45;;;8.80;95.90;;;;;;5025433;28;20470;-74
2023/11/08 04:16:39;;;;;;;11.88;3.38;;;8.80;95.90;;;;;;5019259;28;20033;-74
2023/11/08 04:19:06;;;;;;;9.40;3.15;;;8.70;95.90;;;;;;5023277;28;20056;-75
2023/11/08 04:21:31;;;;;;;10.23;3.15;;;8.80;95.80;;;;;;5019512;28;20148;-74
2023/11/08 04:23:57;;;;;;;12.82;3.20;;;8.80;95.80;;;;;;5020841;28;20165;-75
2023/11/08 04:26:23;;;;;;;6.57;3.05;;;8.80;95.70;;;;;;5019849;28;20593;-74
2023/11/08 04:28:48;;;;;;;13.60;3.53;;;8.80;95.70;;;;;;5026270;28;20046;-74
2023/11/08 04:31:14;;;;;;;6.20;2.83;;;8.70;95.60;;;;;;5031214;28;20124;-76
2023/11/08 04:33:40;;;;;;;8.45;3.22;;;8.70;95.70;;;;;;5035009;28;20111;-74
2023/11/08 04:36:08;;;;;;;10.40;2.88;;;8.70;95.60;;;;;;5038069;28;20038;-74
2023/11/08 04:38:37;;;;;;;11.05;3.25;;;8.70;95.60;;;;;;5021797;28;20061;-75
2023/11/08 04:41:03;;;;;;;11.38;3.40;;;8.70;95.50;;;;;;5020849;28;20042;-74
2023/11/08 04:43:31;;;;;;;11.35;3.30;;;8.60;95.50;;;;;;5023713;28;20033;-76
2023/11/08 04:45:57;;;;;;;9.77;3.42;;;8.60;95.50;;;;;;5017301;28;20045;-74
2023/11/08 04:48:23;;;;;;;11.30;3.42;;;8.60;95.50;;;;;;5022098;28;20398;-74
2023/11/08 04:50:48;;;;;;;10.48;3.85;;;8.60;95.40;;;;;;5024136;28;20127;-75
2023/11/08 04:53:14;;;;;;;10.25;3.28;;;8.60;95.50;;;;;;5023586;28;20037;-75
2023/11/08 04:55:40;;;;;;;7.47;3.00;;;8.60;95.50;;;;;;5019042;28;20546;-74
2023/11/08 04:58:06;;;;;;;11.27;3.38;;;8.60;95.50;;;;;;5019234;28;20038;-74
2023/11/08 05:00:31;;;;;;;12.95;3.70;;;8.60;95.50;;;;;;5018697;28;20100;-76
2023/11/08 05:02:58;;;;;;;10.95;3.50;;;8.60;95.40;;;;;;5020452;28;20053;-75
2023/11/08 05:05:24;;;;;;;9.80;3.38;;;8.60;95.40;;;;;;5019314;28;20037;-74
2023/11/08 05:07:49;;;;;;;11.40;3.72;;;8.60;95.30;;;;;;5021290;28;20379;-74
2023/11/08 05:10:15;;;;;;;10.48;3.35;;;8.50;95.40;;;;;;5021914;28;20040;-73
2023/11/08 05:12:41;;;;;;;11.05;3.63;;;8.50;95.40;;;;;;5019842;28;20045;-74
2023/11/08 05:15:09;;;;;;;8.48;3.40;;;8.50;95.30;;;;;;5020618;28;20066;-76
2023/11/08 05:17:38;;;;;;;9.60;3.30;;;8.60;95.30;;;;;;5022039;28;20041;-74
2023/11/08 05:20:06;;;;;;;11.88;3.92;;;8.50;95.40;;;;;;5018413;28;20080;-74
2023/11/08 05:22:32;;;;;;;9.00;3.88;;;8.50;95.30;;;;;;5019204;28;20096;-76
2023/11/08 05:25:00;;;;;;;11.85;3.83;;;8.50;95.30;;;;;;5019134;28;20041;-73
2023/11/08 05:27:26;;;;;;;12.32;3.75;;;8.40;95.30;;;;;;5021668;28;20081;-76
2023/11/08 05:29:51;;;;;;;11.18;3.80;;;8.40;95.20;;;;;;5017813;28;20549;-74
2023/11/08 05:32:20;;;;;;;11.10;3.47;;;8.40;95.30;;;;;;5019650;28;20115;-77
2023/11/08 05:34:47;;;;;;;9.48;3.58;;;8.40;95.20;;;;;;5017690;28;20049;-75
2023/11/08 05:37:14;;;;;;;13.35;4.63;;;8.40;95.20;;;;;;5016067;28;20029;-74
2023/11/08 05:39:40;;;;;;;11.23;3.78;;;8.30;95.10;;;;;;5015256;28;20034;-75
2023/11/08 05:42:07;;;;;;;13.18;4.15;;;8.30;95.20;;;;;;5017488;28;20041;-75
2023/11/08 05:44:32;;;;;;;11.70;4.28;;;8.30;95.20;;;;;;5022151;28;20049;-74
2023/11/08 05:46:58;;;;;;;11.07;4.40;;;8.30;95.20;;;;;;5016384;28;20116;-74
2023/11/08 05:49:24;;;;;;;13.68;4.13;;;8.30;95.30;;;;;;5012999;28;20132;-75
2023/11/08 05:51:49;;;;;;;12.82;4.10;;;8.30;95.20;;;;;;5017708;28;20048;-73
2023/11/08 05:54:15;;;;;;;10.07;4.10;;;8.30;95.20;;;;;;5015104;28;20044;-74
2023/11/08 05:56:41;;;;;;;9.60;3.58;;;8.30;95.30;;;;;;5018013;28;20030;-73
2023/11/08 05:59:07;;;;;;;10.60;4.10;;;8.30;95.30;;;;;;5019684;28;20029;-73
2023/11/08 06:01:33;;;;;;;10.60;4.10;;;8.30;95.30;;;;;;5021222;28;20371;-73
2023/11/08 06:03:59;;;;;;;11.40;4.07;;;8.30;95.20;;;;;;5028627;28;20037;-73
2023/11/08 06:06:27;;;;;;;12.32;4.57;;;8.30;95.20;;;;;;5034262;28;20045;-75
2023/11/08 06:08:53;;;;;;;10.32;3.88;;;8.30;95.20;;;;;;5031078;28;20375;-75
2023/11/08 06:11:19;;;;;;;10.55;3.65;;;8.30;95.10;;;;;;5033712;28;20033;-76
2023/11/08 06:13:45;;;;;;;12.25;4.65;;;8.30;95.00;;;;;;5025788;28;20068;-73
2023/11/08 06:16:11;;;;;;;13.55;4.40;;;8.30;95.00;;;;;;5016709;28;20037;-72
2023/11/08 06:18:37;;;;;;;14.05;4.28;;;8.30;94.90;;;;;;5017611;28;20037;-74
2023/11/08 06:21:03;;;;;;;12.20;3.90;;;8.30;94.90;;;;;;5021098;28;20037;-74
2023/11/08 06:23:30;;;;;;;11.35;4.38;;;8.30;94.90;;;;;;5023110;28;20030;-74
2023/11/08 06:25:56;;;;;;;11.82;3.92;;;8.30;94.80;;;;;;5026039;28;20137;-74
2023/11/08 06:28:22;;;;;;;12.80;4.07;;;8.30;94.70;;;;;;5020705;28;20046;-72
2023/11/08 06:30:47;;;;;;;10.35;3.85;;;8.30;94.60;;;;;;5026523;28;20095;-78
2023/11/08 06:33:13;;;;;;;10.77;4.22;;;8.30;94.50;;;;;;5027634;28;20049;-77
2023/11/08 06:35:42;;;;;;;13.13;4.55;;;8.20;94.30;;;;;;5025092;28;20099;-73
2023/11/08 06:38:08;;;;;;;14.80;4.45;;;8.20;94.30;;;;;;5020477;28;20579;-74
2023/11/08 06:40:34;;;;;;;12.60;4.00;;;8.20;94.20;;;;;;5022504;28;20454;-74
2023/11/08 06:43:00;;;;;;;10.23;4.15;;;8.20;94.10;;;;;;5019978;28;20041;-76
2023/11/08 06:45:25;;;;;;;16.92;4.63;;;8.20;94.10;;;;;;5024224;28;20138;-78
2023/11/08 06:47:51;;;;;;;12.07;3.97;;;8.10;94.10;;;;;;5022330;28;20045;-75
2023/11/08 06:50:17;;;;;;;13.20;4.50;;;8.10;94.10;;;;;;5025265;28;20040;-74
2023/11/08 06:52:42;;;;;;;9.80;4.38;;;8.10;94.10;;;;;;5024783;28;20140;-73
2023/11/08 06:55:08;;;;;;;12.15;4.45;;;8.10;94.10;;;;;;5023453;28;20133;-73
2023/11/08 06:57:34;;;;;;;11.23;4.50;;;8.00;94.00;;;;;;5020121;28;20038;-73
2023/11/08 07:00:00;;;;;;;14.25;4.13;;;8.10;94.10;;;;;;5021047;28;20033;-74
2023/11/08 07:02:26;;;;;;;12.13;4.20;;;8.00;94.00;;;;;;5020951;28;20065;-74
2023/11/08 07:04:52;;;;;;;10.70;3.80;;;8.00;94.00;;;;;;5024968;28;20057;-73
2023/11/08 07:07:18;;;;;;;11.55;4.53;;;7.90;94.00;;;;;;5016819;28;20061;-74
2023/11/08 07:09:48;;;;;;;9.93;4.28;;;8.00;94.10;;;;;;5018268;28;20431;-74
2023/11/08 07:12:14;;;;;;;12.30;4.35;;;7.90;94.10;;;;;;5023693;28;20497;-74
2023/11/08 07:14:40;;;;;;;14.77;4.38;;;8.00;94.10;;;;;;5025398;28;20702;-74
2023/11/08 07:17:06;;;;;;;10.98;4.88;;;8.00;94.00;;;;;;5020794;28;20107;-74
2023/11/08 07:19:32;;;;;;;10.63;4.47;;;8.00;94.00;;;;;;5024012;28;20367;-74
2023/11/08 07:21:58;;;;;;;9.15;3.95;;;8.10;94.00;;;;;;5023243;28;20045;-74
2023/11/08 07:24:23;;;;;;;13.98;4.82;;;8.00;94.00;;;;;;5022974;28;20106;-76
2023/11/08 07:26:51;;;;;;;12.40;4.43;;;8.10;94.00;;;;;;5020264;28;20475;-75
2023/11/08 07:29:17;;;;;;;17.25;4.65;;;8.10;93.90;;;;;;5022962;28;21036;-77
2023/11/08 07:31:43;;;;;;;13.05;5.18;;;8.10;93.80;;;;;;5024680;28;20055;-75
2023/11/08 07:34:09;;;;;;;13.82;4.90;;;8.10;93.90;;;;;;5026346;28;20030;-73
2023/11/08 07:36:34;;;;;;;13.63;4.65;;;8.10;93.80;;;;;;5019832;28;20044;-74
2023/11/08 07:39:01;;;;;;;10.57;4.30;;;8.10;93.80;;;;;;5024567;28;20038;-76
2023/11/08 07:41:30;;;;;;;12.52;4.40;;;8.10;93.80;;;;;;5025408;28;20156;-76
2023/11/08 07:43:57;;;;;;;13.27;4.40;;;8.10;93.70;;;;;;5026906;28;20024;-81
2023/11/08 07:46:24;;;;;;;13.88;4.55;;;8.20;93.90;;;;;;5023748;28;20398;-81
2023/11/08 07:48:50;;;;;;;15.98;4.90;;;8.20;93.60;;;;;;5026053;28;20022;-81
2023/11/08 07:51:16;;;;;;;14.27;5.80;;;8.20;93.50;;;;;;5015332;28;20398;-81
2023/11/08 07:53:41;;;;;;;15.35;4.85;;;8.20;93.60;;;;;;5022674;28;20021;-81
2023/11/08 07:56:08;;;;;;;11.50;4.00;;;8.20;93.50;;;;;;5022359;28;20037;-82
2023/11/08 07:58:34;;;;;;;12.45;4.70;;;8.30;93.60;;;;;;5024094;28;20045;-82
2023/11/08 08:01:00;;;;;;;15.15;5.05;;;8.30;93.60;;;;;;5023077;28;20083;-81
2023/11/08 08:03:25;;;;;;;13.82;5.13;;;8.30;93.60;;;;;;5016901;28;20049;-78
2023/11/08 08:05:53;;;;;;;12.45;4.57;;;8.30;93.60;;;;;;5021397;28;20438;-77
2023/11/08 08:08:19;;;;;;;13.30;4.75;;;8.30;93.60;;;;;;5026351;28;20282;-77
2023/11/08 08:10:45;;;;;;;13.90;4.70;;;8.30;93.50;;;;;;5023934;28;20095;-76
2023/11/08 08:13:11;;;;;;;16.27;5.75;;;8.30;93.60;;;;;;5023190;28;20073;-76
2023/11/08 08:15:37;;;;;;;11.52;4.75;;;8.30;93.50;;;;;;5023229;28;20175;-75
2023/11/08 08:18:02;;;;;;;13.35;5.47;;;8.40;93.60;;;;;;5020977;28;20069;-76
2023/11/08 08:20:29;;;;;;;11.25;4.80;;;8.50;93.60;;;;;;5022984;28;20033;-76
2023/11/08 08:22:56;;;;;;;13.43;5.50;;;8.50;93.50;;;;;;5023560;28;20045;-76
2023/11/08 08:25:22;;;;;;;14.50;5.07;;;8.60;93.40;;;;;;5038531;28;20053;-77
2023/11/08 08:27:48;;;;;;;16.65;6.25;;;8.70;93.30;;;;;;5020055;28;20054;-77
2023/11/08 08:30:14;;;;;;;12.13;5.10;;;8.80;92.90;;;;;;5020238;28;20399;-76
2023/11/08 08:32:47;;;;;;;16.75;5.72;;;8.70;92.50;;;;;;5019808;28;20045;-78
2023/11/08 08:35:13;;;;;;;12.98;5.25;;;8.70;92.50;;;;;;5022437;28;20077;-78
2023/11/08 08:37:39;;;;;;;14.15;5.90;;;8.80;92.70;;;;;;5019936;28;20120;-77
2023/11/08 08:40:11;;;;;;;15.63;5.63;;;9.00;92.60;;;;;;5021165;28;20171;-79
2023/11/08 08:42:40;;;;;;;15.30;5.65;;;9.20;92.10;;;;;;5018399;28;20516;-77
2023/11/08 08:45:08;;;;;;;14.75;7.32;;;9.30;91.40;;;;;;5020100;28;20034;-76
2023/11/08 08:47:34;;;;;;;14.15;5.55;;;9.30;91.00;;;;;;5018559;28;20423;-77
2023/11/08 08:50:01;;;;;;;15.82;6.47;;;9.40;91.00;;;;;;5024145;28;20045;-75
2023/11/08 08:52:26;;;;;;;13.70;6.32;;;9.30;90.90;;;;;;5020175;28;20041;-76
2023/11/08 08:54:52;;;;;;;13.18;6.40;;;9.30;91.00;;;;;;5023146;28;20367;-74
2023/11/08 08:57:18;;;;;;;14.43;6.78;;;9.20;91.30;;;;;;5021185;28;20124;-75
2023/11/08 08:59:44;;;;;;;11.52;6.18;;;9.20;91.50;;;;;;5021451;28;20041;-74
2023/11/08 09:02:10;;;;;;;13.50;5.95;;;9.20;91.70;;;;;;5022978;28;20041;-76
2023/11/08 09:04:36;;;;;;;11.55;6.32;;;9.30;91.90;;;;;;5020400;28;20033;-77
2023/11/08 09:07:03;;;;;;;12.40;6.25;;;9.50;91.80;;;;;;5015885;28;20026;-75
2023/11/08 09:09:29;;;;;;;10.73;6.05;;;9.60;91.40;;;;;;5021092;28;20013;-76
2023/11/08 09:11:55;;;;;;;12.95;6.85;;;9.80;91.10;;;;;;5022117;28;20034;-76
2023/11/08 09:14:21;;;;;;;14.20;6.40;;;10.10;90.50;;;;;;5029307;28;20022;-75
2023/11/08 09:16:46;;;;;;;13.05;6.68;;;10.20;89.80;;;;;;5027637;28;20152;-76
2023/11/08 09:19:12;;;;;;;12.27;6.30;;;10.30;89.60;;;;;;5027997;28;20049;-75
2023/11/08 09:21:38;;;;;;;14.77;6.40;;;10.50;89.10;;;;;;5034875;28;20078;-76
2023/11/08 09:24:06;;;;;;;13.05;6.18;;;10.40;88.90;;;;;;5024854;28;20018;-75
2023/11/08 09:26:33;;;;;;;11.25;6.05;;;10.30;89.10;;;;;;5020754;28;20045;-74
2023/11/08 09:28:59;;;;;;;12.63;6.70;;;10.20;89.60;;;;;;5022445;28;20041;-76
2023/11/08 09:31:26;;;;;;;12.82;6.63;;;10.20;89.80;;;;;;5023529;28;20034;-75
2023/11/08 09:34:00;;;;;;;16.35;6.75;;;10.20;89.80;;;;;;5020088;28;20051;-76
2023/11/08 09:36:26;;;;;;;11.47;6.37;;;10.10;89.90;;;;;;5018348;28;20037;-76
2023/11/08 09:38:53;;;;;;;15.07;6.97;;;10.20;90.10;;;;;;5022204;28;20022;-75
2023/11/08 09:41:20;;;;;;;15.15;7.55;;;10.20;90.00;;;;;;5020486;28;20030;-75
2023/11/08 09:43:48;;;;;;;14.63;7.18;;;10.20;90.20;;;;;;5024812;28;20119;-77
2023/11/08 09:46:16;;;;;;;12.95;8.00;;;10.20;90.40;;;;;;5024113;28;20045;-77
2023/11/08 09:48:44;;;;;;;18.83;8.10;;;10.20;90.40;;;;;;5018295;28;20045;-77
2023/11/08 09:51:13;;;;;;;13.60;7.40;;;10.20;90.40;;;;;;5010740;28;20458;-76
2023/11/08 09:53:45;;;;;;;16.98;7.55;;;10.30;90.30;;;;;;5024718;28;20041;-76
2023/11/08 09:56:12;;;;;;;12.10;6.95;;;10.30;90.50;;;;;;5013937;28;20038;-77
2023/11/08 09:58:41;;;;;;;12.90;7.97;;;10.30;90.60;;;;;;5018176;28;20037;-77
2023/11/08 10:01:17;;;;;;;16.17;8.05;;;10.30;90.50;;;;;;5017041;28;20034;-75
2023/11/08 10:03:44;;;;;;;11.45;7.07;;;10.40;90.60;;;;;;5022680;28;20038;-76
2023/11/08 10:06:11;;;;;;;12.98;7.15;;;10.40;90.50;;;;;;5019128;28;20043;-76
2023/11/08 10:08:37;;;;;;;11.98;7.57;;;10.50;90.30;;;;;;5017572;28;20049;-75
2023/11/08 10:11:05;;;;;;;17.88;8.18;;;10.60;90.30;;;;;;5021879;28;20034;-79
2023/11/08 10:13:54;;;;;;;11.65;6.85;;;10.60;90.30;;;;;;5008632;28;20026;-75
2023/11/08 10:16:24;;;;;;;14.60;7.10;;;10.70;90.50;;;;;;5016038;28;20374;-77
2023/11/08 10:19:00;;;;;;;15.95;8.23;;;10.70;90.30;;;;;;5016682;28;20021;-76
2023/11/08 10:21:27;;;;;;;13.40;7.40;;;10.80;90.20;;;;;;5013767;28;20625;-75
2023/11/08 10:23:55;;;;;;;15.57;6.97;;;10.90;90.20;;;;;;5022510;28;20029;-74
2023/11/08 10:26:27;;;;;;;16.65;7.18;;;10.80;90.10;;;;;;5016691;28;20041;-77
2023/11/08 10:29:02;;;;;;;11.55;7.43;;;10.80;90.30;;;;;;5022961;28;20060;-76
2023/11/08 10:31:34;;;;;;;17.63;7.75;;;10.90;90.60;;;;;;5018436;28;20044;-77
2023/11/08 10:34:04;;;;;;;14.13;7.50;;;10.90;90.60;;;;;;5019271;28;20099;-77
2023/11/08 10:36:32;;;;;;;10.57;6.53;;;10.70;91.10;;;;;;5019617;28;20036;-75
2023/11/08 10:38:58;;;;;;;14.98;7.60;;;10.80;91.40;;;;;;5019997;28;20018;-77
2023/11/08 10:41:24;;;;;;;12.50;5.95;;;10.80;91.30;;;;;;5021521;28;20946;-77
2023/11/08 10:44:11;;;;;;;13.35;6.50;;;10.80;91.10;;;;;;5020159;28;20049;-78
2023/11/08 10:46:39;;;;;;;13.55;6.72;;;10.70;90.90;;;;;;5018075;28;20045;-77
2023/11/08 10:49:06;;;;;;;18.52;6.80;;;10.60;91.10;;;;;;5018082;28;20043;-77
2023/11/08 10:51:42;;;;;;;11.38;6.60;;;10.60;91.30;;;;;;5012262;28;20880;-77
2023/11/08 10:54:08;;;;;;;15.35;6.88;;;10.60;91.80;;;;;;5017057;28;20022;-78
2023/11/08 10:56:35;;;;;;;13.10;7.10;;;10.60;92.00;;;;;;5019818;28;21032;-81
2023/11/08 10:59:03;;;;;;;12.05;7.25;;;10.50;92.30;;;;;;5020298;28;20188;-80
2023/11/08 11:01:31;;;;;;;17.75;7.40;;;10.50;92.50;;;;;;5008252;28;20125;-78
2023/11/08 11:04:06;;;;;;;15.65;7.35;;;10.50;92.50;;;;;;5017429;28;20018;-80
2023/11/08 11:06:38;;;;;;;14.55;8.02;;;10.60;92.50;;;;;;5017071;28;20108;-78
2023/11/08 11:09:12;;;;;;;12.43;6.65;;;10.60;92.70;;;;;;5017964;28;20024;-80
2023/11/08 11:11:45;;;;;;;12.93;7.57;;;10.60;92.70;;;;;;5021910;28;20029;-78
2023/11/08 11:14:33;;;;;;;12.77;6.93;;;10.60;92.80;;;;;;5023247;28;20033;-79
2023/11/08 11:17:11;;;;;;;14.23;7.05;;;10.60;92.50;;;;;;5023351;28;20037;-79
2023/11/08 11:19:41;;;;;;;15.27;8.20;;;10.40;92.60;;;;;;5024372;28;20421;-80
2023/11/08 11:22:12;;;;;;;17.05;11.43;;;10.40;92.70;;;;;;5037688;28;20065;-77
2023/11/08 11:24:45;;;;;;;14.35;8.40;;;10.40;93.10;;;;;;5020401;28;20039;-78
2023/11/08 11:27:34;;;;;;;18.10;8.30;;;10.30;93.10;;;;;;5022649;28;20126;-78
2023/11/08 11:30:26;;;;;;;17.75;7.90;;;10.30;93.30;;;;;;5022839;28;20049;-78
2023/11/08 11:32:53;;;;;;;14.45;9.65;;;10.30;93.60;;;;;;5023185;28;20131;-78
2023/11/08 11:35:28;;;;;;;26.10;17.65;;;10.20;93.80;;;;;;5021841;28;20042;-77
2023/11/08 11:38:06;;;;;;;28.17;17.90;;;10.20;94.00;;;;;;5020353;28;20064;-79
2023/11/08 11:40:38;;;;;;;22.75;12.98;;;10.20;94.30;;;;;;5023583;28;20037;-78
2023/11/08 11:43:38;;;;;;;17.30;10.60;;;10.30;94.20;;;;;;5017013;28;20397;-77
2023/11/08 11:46:05;;;;;;;16.83;9.27;;;10.40;94.30;;;;;;5020483;28;20079;-78
2023/11/08 11:48:35;;;;;;;14.98;7.68;;;10.40;93.90;;;;;;5014784;28;20034;-79
2023/11/08 11:51:02;;;;;;;12.73;7.75;;;10.40;93.70;;;;;;5020077;28;20171;-78
2023/11/08 11:53:32;;;;;;;19.98;9.05;;;10.40;93.60;;;;;;5017259;28;20116;-78
2023/11/08 11:56:08;;;;;;;12.50;7.57;;;10.50;93.80;;;;;;5021416;28;20490;-79
2023/11/08 11:58:37;;;;;;;14.85;8.00;;;10.50;93.40;;;;;;5016207;28;20037;-78
2023/11/08 12:01:05;;;;;;;12.45;7.53;;;10.50;93.20;;;;;;5020090;28;20712;-79
2023/11/08 12:03:32;;;;;;;14.43;7.10;;;10.60;93.20;;;;;;5013481;28;20442;-78
2023/11/08 12:05:58;;;;;;;11.43;7.30;;;10.50;93.10;;;;;;5018838;28;20033;-76
2023/11/08 12:08:24;;;;;;;13.82;7.78;;;10.60;93.20;;;;;;5017422;28;20045;-78
2023/11/08 12:10:50;;;;;;;14.82;6.82;;;10.60;93.00;;;;;;5017081;28;21362;-78
2023/11/08 12:13:16;;;;;;;11.52;6.20;;;10.60;93.00;;;;;;5020956;28;20033;-74
2023/11/08 12:15:41;;;;;;;11.40;6.25;;;10.50;92.90;;;;;;5019143;28;20033;-79
2023/11/08 12:18:11;;;;;;;15.43;7.03;;;10.60;92.90;;;;;;5034663;28;20112;-76
2023/11/08 12:20:43;;;;;;;12.25;6.90;;;10.60;93.00;;;;;;5021314;28;20029;-77
2023/11/08 12:23:09;;;;;;;13.95;6.80;;;10.70;92.70;;;;;;5019375;28;20148;-77
2023/11/08 12:25:36;;;;;;;14.38;6.13;;;10.70;92.40;;;;;;5012660;28;20064;-77
2023/11/08 12:28:02;;;;;;;13.05;6.03;;;10.70;92.30;;;;;;5017920;28;20145;-79
2023/11/08 12:30:28;;;;;;;14.10;6.18;;;10.80;92.30;;;;;;5018126;28;20140;-78
2023/11/08 12:32:58;;;;;;;13.23;5.47;;;10.80;92.20;;;;;;5023415;28;20038;-79
2023/11/08 12:35:24;;;;;;;11.15;5.78;;;10.80;92.30;;;;;;5025588;28;20034;-79
2023/11/08 12:37:55;;;;;;;11.30;6.07;;;10.90;92.40;;;;;;5023150;28;20041;-78
2023/11/08 12:40:22;;;;;;;14.98;6.25;;;10.90;92.40;;;;;;5022747;28;20072;-78
2023/11/08 12:42:49;;;;;;;11.55;5.60;;;10.80;92.40;;;;;;5022506;28;20041;-76
2023/11/08 12:45:29;;;;;;;15.13;5.97;;;10.90;92.50;;;;;;5019316;28;20037;-76